createdAt,value
2018-02-13T00:00:41.866Z,8.77
2018-02-13T00:03:08.775Z,6.90
2018-02-13T00:05:35.677Z,8.07
2018-02-13T00:08:02.578Z,8.35
2018-02-13T00:10:30.245Z,9.55
2018-02-13T00:12:57.155Z,9.07
2018-02-13T00:15:24.084Z,7.35
2018-02-13T00:17:50.989Z,8.60
2018-02-13T00:20:17.916Z,7.82
2018-02-13T00:22:51.219Z,8.40
2018-02-13T00:25:18.144Z,8.63
2018-02-13T00:27:45.836Z,7.90
2018-02-13T00:30:12.768Z,9.25
2018-02-13T00:32:40.505Z,9.35
2018-02-13T00:35:07.564Z,9.65
2018-02-13T00:37:35.271Z,8.68
2018-02-13T00:40:02.230Z,9.15
2018-02-13T00:42:29.189Z,10.80
2018-02-13T00:44:56.305Z,10.32
2018-02-13T00:47:23.810Z,9.55
2018-02-13T00:49:51.483Z,10.15
2018-02-13T00:52:19.200Z,9.98
2018-02-13T00:54:46.103Z,9.80
2018-02-13T00:57:13.786Z,11.63
2018-02-13T00:59:40.706Z,10.30
2018-02-13T01:02:08.402Z,8.43
2018-02-13T01:04:35.316Z,9.23
2018-02-13T01:07:03.009Z,10.02
2018-02-13T01:09:29.913Z,11.60
2018-02-13T01:11:57.610Z,11.27
2018-02-13T01:14:24.532Z,11.10
2018-02-13T01:16:51.456Z,10.25
2018-02-13T01:19:19.140Z,10.73
2018-02-13T01:21:46.072Z,11.85
2018-02-13T01:24:13.753Z,11.50
2018-02-13T01:26:40.679Z,10.90
2018-02-13T01:29:08.360Z,12.50
2018-02-13T01:31:35.283Z,12.43
2018-02-13T01:34:02.947Z,10.10
2018-02-13T01:36:30.653Z,10.40
2018-02-13T01:38:57.581Z,11.30
2018-02-13T01:41:24.503Z,11.70
2018-02-13T01:43:52.180Z,12.80
2018-02-13T01:46:19.107Z,11.85
2018-02-13T01:48:46.020Z,11.77
2018-02-13T01:51:12.948Z,12.00
2018-02-13T01:53:39.867Z,13.00
2018-02-13T01:56:06.792Z,11.68
2018-02-13T01:58:33.696Z,12.52
2018-02-13T02:01:00.637Z,11.40
2018-02-13T02:03:27.571Z,13.00
2018-02-13T02:05:54.487Z,12.63
2018-02-13T02:08:21.417Z,12.50
2018-02-13T02:10:48.328Z,12.90
2018-02-13T02:13:15.263Z,12.10
2018-02-13T02:15:42.172Z,11.07
2018-02-13T02:18:09.087Z,11.82
2018-02-13T02:20:36.004Z,12.30
2018-02-13T02:23:02.927Z,11.90
2018-02-13T02:25:29.851Z,12.57
2018-02-13T02:27:56.781Z,10.93
2018-02-13T02:30:23.697Z,12.05
2018-02-13T02:32:51.393Z,11.70
2018-02-13T02:35:18.356Z,9.98
2018-02-13T02:37:45.266Z,12.45
2018-02-13T02:40:12.180Z,11.45
2018-02-13T02:42:50.944Z,9.93
2018-02-13T02:45:17.857Z,10.35
2018-02-13T02:47:45.559Z,11.93
2018-02-13T02:50:12.468Z,11.45
2018-02-13T02:52:39.400Z,12.65
2018-02-13T02:55:07.086Z,11.60
2018-02-13T02:57:34.042Z,12.23
2018-02-13T03:00:00.951Z,12.20
2018-02-13T03:02:27.879Z,11.82
2018-02-13T03:04:54.785Z,11.77
2018-02-13T03:07:21.700Z,11.35
2018-02-13T03:09:49.383Z,11.80
2018-02-13T03:12:16.296Z,12.35
2018-02-13T03:14:44.000Z,11.93
2018-02-13T03:17:10.912Z,12.43
2018-02-13T03:19:38.607Z,11.73
2018-02-13T03:22:05.524Z,11.73
2018-02-13T03:24:32.455Z,12.02
2018-02-13T03:27:00.129Z,12.15
2018-02-13T03:29:27.140Z,12.93
2018-02-13T03:31:53.992Z,12.20
2018-02-13T03:34:20.920Z,14.48
2018-02-13T03:36:47.850Z,14.15
2018-02-13T03:39:14.776Z,12.50
2018-02-13T03:41:41.687Z,12.45
2018-02-13T03:44:09.379Z,14.82
2018-02-13T03:46:36.300Z,15.20
2018-02-13T03:49:03.232Z,13.82
2018-02-13T03:51:30.921Z,13.50
2018-02-13T03:53:57.848Z,14.20
2018-02-13T03:56:25.521Z,15.95
2018-02-13T03:58:52.448Z,14.70
2018-02-13T04:01:20.140Z,15.50
2018-02-13T04:03:47.060Z,14.87
2018-02-13T04:06:14.732Z,15.55
2018-02-13T04:08:41.660Z,14.52
2018-02-13T04:11:09.338Z,15.25
2018-02-13T04:13:36.264Z,14.87
2018-02-13T04:16:03.961Z,15.80
2018-02-13T04:18:30.888Z,17.48
2018-02-13T04:20:57.820Z,16.17
2018-02-13T04:23:25.525Z,15.77
2018-02-13T04:25:52.457Z,17.08
2018-02-13T04:28:19.372Z,16.95
2018-02-13T04:30:47.063Z,18.75
2018-02-13T04:33:13.975Z,16.83
2018-02-13T04:35:41.668Z,17.80
2018-02-13T04:38:08.584Z,18.10
2018-02-13T04:40:36.280Z,17.33
2018-02-13T04:43:03.196Z,17.23
2018-02-13T04:45:30.135Z,18.67
2018-02-13T04:47:57.811Z,18.50
2018-02-13T04:50:24.726Z,16.45
2018-02-13T04:52:52.408Z,17.67
2018-02-13T04:55:20.108Z,18.50
2018-02-13T04:57:47.018Z,17.52
2018-02-13T05:00:13.959Z,17.98
2018-02-13T05:02:40.871Z,19.35
2018-02-13T05:05:07.804Z,20.40
2018-02-13T05:07:34.744Z,20.02
2018-02-13T05:10:01.663Z,20.02
2018-02-13T05:12:28.572Z,21.05
2018-02-13T05:14:55.507Z,19.80
2018-02-13T05:17:23.198Z,19.85
2018-02-13T05:19:50.124Z,20.80
2018-02-13T05:22:17.801Z,20.00
2018-02-13T05:24:44.732Z,20.12
2018-02-13T05:27:11.643Z,21.85
2018-02-13T05:29:38.581Z,20.62
2018-02-13T05:32:05.508Z,20.62
2018-02-13T05:34:32.432Z,24.10
2018-02-13T05:36:59.340Z,21.75
2018-02-13T05:39:27.030Z,20.83
2018-02-13T05:41:53.972Z,24.10
2018-02-13T05:44:20.895Z,23.60
2018-02-13T05:46:48.574Z,22.42
2018-02-13T05:49:15.495Z,23.55
2018-02-13T05:51:42.404Z,22.60
2018-02-13T05:54:09.345Z,20.58
2018-02-13T05:56:36.267Z,24.23
2018-02-13T05:59:03.208Z,25.58
2018-02-13T06:01:30.112Z,23.60
2018-02-13T06:03:57.035Z,24.60
2018-02-13T06:06:23.938Z,24.75
2018-02-13T06:08:50.864Z,24.30
2018-02-13T06:11:18.546Z,24.37
2018-02-13T06:13:45.477Z,22.52
2018-02-13T06:16:12.408Z,24.05
2018-02-13T06:18:40.091Z,24.75
2018-02-13T06:21:07.178Z,25.95
2018-02-13T06:23:34.909Z,24.85
2018-02-13T06:26:01.819Z,24.67
2018-02-13T06:28:28.740Z,24.77
2018-02-13T06:30:55.668Z,24.77
2018-02-13T06:33:22.584Z,26.67
2018-02-13T06:35:49.520Z,21.12
2018-02-13T06:38:16.440Z,23.67
2018-02-13T06:40:44.140Z,22.00
2018-02-13T06:43:11.052Z,23.48
2018-02-13T06:45:38.770Z,26.23
2018-02-13T06:48:05.697Z,22.42
2018-02-13T06:50:32.608Z,25.15
2018-02-13T06:53:00.311Z,24.42
2018-02-13T06:55:27.231Z,23.67
2018-02-13T06:57:54.155Z,23.55
2018-02-13T07:00:21.853Z,23.35
2018-02-13T07:02:48.769Z,26.62
2018-02-13T07:05:16.455Z,24.10
2018-02-13T07:07:44.239Z,23.15
2018-02-13T07:10:11.165Z,25.35
2018-02-13T07:12:38.080Z,25.00
2018-02-13T07:15:05.784Z,25.12
2018-02-13T07:17:32.706Z,26.45
2018-02-13T07:19:59.628Z,25.30
2018-02-13T07:22:27.317Z,25.42
2018-02-13T07:24:54.244Z,24.60
2018-02-13T07:27:21.155Z,22.75
2018-02-13T07:29:48.083Z,25.45
2018-02-13T07:32:14.999Z,24.30
2018-02-13T07:34:41.948Z,24.42
2018-02-13T07:37:08.872Z,24.55
2018-02-13T07:39:35.792Z,25.67
2018-02-13T07:42:03.475Z,24.33
2018-02-13T07:44:30.508Z,24.17
2018-02-13T07:46:58.208Z,22.37
2018-02-13T07:49:25.144Z,18.00
2018-02-13T07:51:52.056Z,22.40
2018-02-13T07:54:19.755Z,23.00
2018-02-13T07:56:46.672Z,23.25
2018-02-13T07:59:14.363Z,22.95
2018-02-13T08:01:41.274Z,23.40
2018-02-13T08:04:08.196Z,23.48
2018-02-13T08:06:35.108Z,22.70
2018-02-13T08:09:02.063Z,25.50
2018-02-13T08:11:29.003Z,22.02
2018-02-13T08:13:55.984Z,23.42
2018-02-13T08:16:23.671Z,23.15
2018-02-13T08:18:50.604Z,22.15
2018-02-13T08:21:18.286Z,22.77
2018-02-13T08:23:45.228Z,23.80
2018-02-13T08:26:12.139Z,22.33
2018-02-13T08:28:39.064Z,25.80
2018-02-13T08:31:05.980Z,23.10
2018-02-13T08:33:32.930Z,23.40
2018-02-13T08:35:59.854Z,22.35
2018-02-13T08:38:26.780Z,22.45
2018-02-13T08:40:53.700Z,24.87
2018-02-13T08:43:20.624Z,21.85
2018-02-13T08:45:48.298Z,24.73
2018-02-13T08:48:15.229Z,22.27
2018-02-13T08:50:42.931Z,24.08
2018-02-13T08:53:09.851Z,21.95
2018-02-13T08:55:36.747Z,24.70
2018-02-13T08:58:03.677Z,25.45
2018-02-13T09:00:30.580Z,22.60
2018-02-13T09:02:57.496Z,22.20
2018-02-13T09:05:24.407Z,23.17
2018-02-13T09:07:51.341Z,24.80
2018-02-13T09:10:18.246Z,25.65
2018-02-13T09:12:45.945Z,17.85
2018-02-13T09:15:12.853Z,25.58
2018-02-13T09:17:40.552Z,23.90
2018-02-13T09:20:07.462Z,22.65
2018-02-13T09:22:35.157Z,23.40
2018-02-13T09:25:02.080Z,25.60
2018-02-13T09:27:29.068Z,22.27
2018-02-13T09:29:56.038Z,23.25
2018-02-13T09:32:22.936Z,23.33
2018-02-13T09:34:49.865Z,23.62
2018-02-13T09:37:16.807Z,24.30
2018-02-13T09:39:43.728Z,24.05
2018-02-13T09:42:11.420Z,27.60
2018-02-13T09:44:38.331Z,23.73
2018-02-13T09:47:06.013Z,24.83
2018-02-13T09:49:32.918Z,24.15
2018-02-13T09:51:59.855Z,24.12
2018-02-13T09:54:27.532Z,24.95
2018-02-13T09:56:54.451Z,23.12
2018-02-13T09:59:21.364Z,23.83
2018-02-13T10:01:48.306Z,23.85
2018-02-13T10:04:15.236Z,27.27
2018-02-13T10:06:42.155Z,24.45
2018-02-13T10:09:09.055Z,25.10
2018-02-13T10:11:35.988Z,25.25
2018-02-13T10:14:02.903Z,25.23
2018-02-13T10:16:30.598Z,21.58
2018-02-13T10:18:57.534Z,25.40
2018-02-13T10:21:24.456Z,24.70
2018-02-13T10:23:52.128Z,23.60
2018-02-13T10:26:19.052Z,24.58
2018-02-13T10:28:46.723Z,23.65
2018-02-13T10:31:14.412Z,24.63
2018-02-13T10:33:41.320Z,26.23
2018-02-13T10:36:09.008Z,25.00
2018-02-13T10:38:35.939Z,23.42
2018-02-13T10:41:03.643Z,25.10
2018-02-13T10:43:30.552Z,25.45
2018-02-13T10:45:57.472Z,25.50
2018-02-13T10:48:25.163Z,26.27
2018-02-13T10:50:52.118Z,25.77
2018-02-13T10:53:19.039Z,26.50
2018-02-13T10:55:46.725Z,25.60
2018-02-13T10:58:13.652Z,27.40
2018-02-13T11:00:40.592Z,26.08
2018-02-13T11:03:08.278Z,25.00
2018-02-13T11:05:35.197Z,25.62
2018-02-13T11:08:02.889Z,25.50
2018-02-13T11:10:29.804Z,25.88
2018-02-13T11:12:57.488Z,26.25
2018-02-13T11:15:24.411Z,26.30
2018-02-13T11:17:52.125Z,24.75
2018-02-13T11:20:19.077Z,24.40
2018-02-13T11:22:45.997Z,25.48
2018-02-13T11:25:12.924Z,24.58
2018-02-13T11:27:39.832Z,26.65
2018-02-13T11:30:06.756Z,28.40
2018-02-13T11:32:33.690Z,26.73
2018-02-13T11:35:00.624Z,28.48
2018-02-13T11:37:27.538Z,25.70
2018-02-13T11:39:54.472Z,26.75
2018-02-13T11:42:21.389Z,26.98
2018-02-13T11:44:48.340Z,26.17
2018-02-13T11:47:15.260Z,26.75
2018-02-13T11:49:42.172Z,26.60
2018-02-13T11:52:09.150Z,32.55
2018-02-13T11:54:36.113Z,26.83
2018-02-13T11:57:03.796Z,25.90
2018-02-13T11:59:32.212Z,22.60
2018-02-13T12:01:59.121Z,25.88
2018-02-13T12:04:26.812Z,26.25
2018-02-13T12:06:53.732Z,26.10
2018-02-13T12:09:21.404Z,25.70
2018-02-13T12:11:48.319Z,25.65
2018-02-13T12:14:16.748Z,25.80
2018-02-13T12:16:43.651Z,22.77
2018-02-13T12:19:11.339Z,24.55
2018-02-13T12:21:38.250Z,27.65
2018-02-13T12:24:05.176Z,28.85
2018-02-13T12:26:32.099Z,25.35
2018-02-13T12:28:59.005Z,28.15
2018-02-13T12:31:26.691Z,28.10
2018-02-13T12:33:53.596Z,26.17
2018-02-13T12:36:21.287Z,24.75
2018-02-13T12:38:48.193Z,22.67
2018-02-13T12:41:15.875Z,21.85
2018-02-13T12:43:43.554Z,23.15
2018-02-13T12:46:10.453Z,22.92
2018-02-13T12:48:37.393Z,24.55
2018-02-13T12:51:04.300Z,21.75
2018-02-13T12:53:31.216Z,23.38
2018-02-13T12:55:58.135Z,22.33
2018-02-13T12:58:25.054Z,22.77
2018-02-13T13:00:51.972Z,22.20
2018-02-13T13:03:18.897Z,21.50
2018-02-13T13:05:45.809Z,21.75
2018-02-13T13:08:12.745Z,20.42
2018-02-13T13:10:39.655Z,22.33
2018-02-13T13:13:06.576Z,19.45
2018-02-13T13:15:33.483Z,21.12
2018-02-13T13:18:00.394Z,20.00
2018-02-13T13:20:27.295Z,20.33
2018-02-13T13:22:54.985Z,21.15
2018-02-13T13:25:21.908Z,19.73
2018-02-13T13:27:48.849Z,19.12
2018-02-13T13:30:16.517Z,19.33
2018-02-13T13:32:44.195Z,17.20
2018-02-13T13:35:11.104Z,16.20
2018-02-13T13:37:38.796Z,17.48
2018-02-13T13:40:05.708Z,17.52
2018-02-13T13:42:33.404Z,17.13
2018-02-13T13:45:00.324Z,18.55
2018-02-13T13:47:28.020Z,18.83
2018-02-13T13:49:54.956Z,17.25
2018-02-13T13:52:21.872Z,16.75
2018-02-13T13:54:48.793Z,16.35
2018-02-13T13:57:15.728Z,18.12
2018-02-13T13:59:42.656Z,16.83
2018-02-13T14:02:09.583Z,16.20
2018-02-13T14:04:36.531Z,15.75
2018-02-13T14:07:03.453Z,17.08
2018-02-13T14:09:30.369Z,17.12
2018-02-13T14:11:57.288Z,18.02
2018-02-13T14:14:24.195Z,17.40
2018-02-13T14:16:51.115Z,17.85
2018-02-13T14:19:18.796Z,16.73
2018-02-13T14:21:45.704Z,17.80
2018-02-13T14:24:12.636Z,18.58
2018-02-13T14:26:39.543Z,18.73
2018-02-13T14:29:06.473Z,16.75
2018-02-13T14:31:33.376Z,15.75
2018-02-13T14:34:00.312Z,16.23
2018-02-13T14:36:27.219Z,15.95
2018-02-13T14:38:54.141Z,18.08
2018-02-13T14:41:21.049Z,16.55
2018-02-13T14:43:47.984Z,18.80
2018-02-13T14:46:14.894Z,18.75
2018-02-13T14:48:41.833Z,22.25
2018-02-13T14:51:08.770Z,22.62
2018-02-13T14:53:35.738Z,18.98
2018-02-13T14:56:02.681Z,22.30
2018-02-13T14:58:29.605Z,20.60
2018-02-13T15:00:56.526Z,22.05
2018-02-13T15:03:24.222Z,21.60
2018-02-13T15:05:51.127Z,22.33
2018-02-13T15:08:18.049Z,21.50
2018-02-13T15:10:44.973Z,22.08
2018-02-13T15:13:11.891Z,21.75
2018-02-13T15:15:38.804Z,22.17
2018-02-13T15:18:05.741Z,22.10
2018-02-13T15:20:32.648Z,25.10
2018-02-13T15:22:59.580Z,23.40
2018-02-13T15:25:26.493Z,23.58
2018-02-13T15:27:54.191Z,21.40
2018-02-13T15:30:21.103Z,22.02
2018-02-13T15:32:48.788Z,21.02
2018-02-13T15:35:15.704Z,18.48
2018-02-13T15:37:43.466Z,20.58
2018-02-13T15:42:37.361Z,20.80
2018-02-13T15:45:04.276Z,20.02
2018-02-13T15:47:32.000Z,20.33
2018-02-13T15:49:58.922Z,22.37
2018-02-13T15:52:25.876Z,18.00
2018-02-13T15:54:52.868Z,20.77
2018-02-13T15:57:19.796Z,20.77
2018-02-13T15:59:46.707Z,21.65
2018-02-13T16:02:13.632Z,20.67
2018-02-13T16:04:41.322Z,21.00
2018-02-13T16:07:08.228Z,21.50
2018-02-13T16:09:35.900Z,23.80
2018-02-13T16:12:03.605Z,20.75
2018-02-13T16:14:30.514Z,22.98
2018-02-13T16:16:58.201Z,21.08
2018-02-13T16:19:25.127Z,20.90
2018-02-13T16:21:52.056Z,21.90
2018-02-13T16:24:19.743Z,21.23
2018-02-13T16:26:46.647Z,22.58
2018-02-13T16:29:13.589Z,23.42
2018-02-13T16:31:40.496Z,21.50
2018-02-13T16:34:07.436Z,20.17
2018-02-13T16:36:34.346Z,23.15
2018-02-13T16:39:02.033Z,23.00
2018-02-13T16:41:28.964Z,22.85
2018-02-13T16:43:55.888Z,21.25
2018-02-13T16:46:23.571Z,23.10
2018-02-13T16:48:50.504Z,21.23
2018-02-13T16:51:17.407Z,21.87
2018-02-13T16:53:44.359Z,22.05
2018-02-13T16:56:11.280Z,22.08
2018-02-13T16:58:38.224Z,19.95
2018-02-13T17:01:05.136Z,22.08
2018-02-13T17:03:32.080Z,22.33
2018-02-13T17:05:59.760Z,20.80
2018-02-13T17:08:26.683Z,19.83
2018-02-13T17:10:53.608Z,21.58
2018-02-13T17:13:21.309Z,22.15
2018-02-13T17:15:48.223Z,22.65
2018-02-13T17:18:15.908Z,21.05
2018-02-13T17:20:42.818Z,21.55
2018-02-13T17:23:10.481Z,22.10
2018-02-13T17:25:38.172Z,21.05
2018-02-13T17:28:05.106Z,20.30
2018-02-13T17:30:32.056Z,22.23
2018-02-13T17:32:58.970Z,20.60
2018-02-13T17:35:25.921Z,22.10
2018-02-13T17:37:52.848Z,18.77
2018-02-13T17:40:19.810Z,21.70
2018-02-13T17:42:46.729Z,20.85
2018-02-13T17:45:13.674Z,19.60
2018-02-13T17:47:40.596Z,20.62
2018-02-13T17:50:07.572Z,20.37
2018-02-13T17:52:34.487Z,19.58
2018-02-13T17:55:01.426Z,20.00
2018-02-13T17:57:28.342Z,19.37
2018-02-13T17:59:55.309Z,18.23
2018-02-13T18:02:22.219Z,19.35
2018-02-13T18:04:49.927Z,19.87
2018-02-13T18:07:16.839Z,18.87
2018-02-13T18:09:43.856Z,19.67
2018-02-13T18:12:10.788Z,19.58
2018-02-13T18:14:37.701Z,17.70
2018-02-13T18:17:04.624Z,19.50
2018-02-13T18:19:31.549Z,17.48
2018-02-13T18:21:58.576Z,17.62
2018-02-13T18:24:25.484Z,18.87
2018-02-13T18:26:52.388Z,16.80
2018-02-13T18:29:19.329Z,17.75
2018-02-13T18:31:46.274Z,17.75
2018-02-13T18:34:13.236Z,16.90
2018-02-13T18:36:40.193Z,17.08
2018-02-13T18:39:07.108Z,17.05
2018-02-13T18:41:34.810Z,15.55
2018-02-13T18:44:01.735Z,15.90
2018-02-13T18:46:28.653Z,17.02
2018-02-13T18:48:56.384Z,16.40
2018-02-13T18:51:23.308Z,15.93
2018-02-13T18:53:50.241Z,15.18
2018-02-13T18:56:17.166Z,16.50
2018-02-13T18:58:44.095Z,15.55
2018-02-13T19:01:11.810Z,16.35
2018-02-13T19:03:38.757Z,14.73
2018-02-13T19:06:05.709Z,15.05
2018-02-13T19:08:32.633Z,15.70
2018-02-13T19:10:59.579Z,17.40
2018-02-13T19:13:26.493Z,16.33
2018-02-13T19:15:53.471Z,16.87
2018-02-13T19:18:20.404Z,18.37
2018-02-13T19:20:47.317Z,16.20
2018-02-13T19:23:15.046Z,17.33
2018-02-13T19:25:41.967Z,16.37
2018-02-13T19:28:08.873Z,16.65
2018-02-13T19:30:35.808Z,18.05
2018-02-13T19:33:03.493Z,17.33
2018-02-13T19:35:30.415Z,17.12
2018-02-13T19:37:58.097Z,18.20
2018-02-13T19:40:25.052Z,17.15
2018-02-13T19:42:51.968Z,17.35
2018-02-13T19:45:19.668Z,17.60
2018-02-13T19:47:46.575Z,18.20
2018-02-13T19:50:13.520Z,18.42
2018-02-13T19:52:40.449Z,18.75
2018-02-13T19:55:07.385Z,16.55
2018-02-13T19:57:34.324Z,16.98
2018-02-13T20:00:01.269Z,18.10
2018-02-13T20:02:28.176Z,15.63
2018-02-13T20:04:55.112Z,16.83
2018-02-13T20:07:22.020Z,17.48
2018-02-13T20:09:49.720Z,15.80
2018-02-13T20:12:16.648Z,15.18
2018-02-13T20:14:43.580Z,15.32
2018-02-13T20:17:11.269Z,15.10
2018-02-13T20:19:38.257Z,15.32
2018-02-13T20:22:05.168Z,15.65
2018-02-13T20:24:32.085Z,14.02
2018-02-13T20:26:59.030Z,16.90
2018-02-13T20:29:26.712Z,16.25
2018-02-13T20:31:53.645Z,15.50
2018-02-13T20:34:20.576Z,14.73
2018-02-13T20:36:48.252Z,15.30
2018-02-13T20:39:15.176Z,13.23
2018-02-13T20:41:42.852Z,13.27
2018-02-13T20:44:09.772Z,12.95
2018-02-13T20:46:37.448Z,13.10
2018-02-13T20:49:05.140Z,12.05
2018-02-13T20:51:32.047Z,13.20
2018-02-13T20:53:59.741Z,12.32
2018-02-13T20:56:26.672Z,11.20
2018-02-13T20:58:53.627Z,11.77
2018-02-13T21:01:20.531Z,10.57
2018-02-13T21:03:48.215Z,11.60
2018-02-13T21:06:15.884Z,12.18
2018-02-13T21:08:42.807Z,11.57
2018-02-13T21:11:11.045Z,11.40
2018-02-13T21:13:37.972Z,11.48
2018-02-13T21:16:04.899Z,12.07
2018-02-13T21:18:31.825Z,12.85
2018-02-13T21:20:59.517Z,13.73
2018-02-13T21:23:26.444Z,10.90
2018-02-13T21:25:53.364Z,11.30
2018-02-13T21:28:21.065Z,11.00
2018-02-13T21:30:47.976Z,11.50
2018-02-13T21:33:15.681Z,11.60
2018-02-13T21:35:42.587Z,10.10
2018-02-13T21:38:10.272Z,10.68
2018-02-13T21:40:37.183Z,11.25
2018-02-13T21:43:05.095Z,10.45
2018-02-13T21:45:32.943Z,11.38
2018-02-13T21:47:59.886Z,11.77
2018-02-13T21:50:26.811Z,9.38
2018-02-13T21:52:54.496Z,9.65
2018-02-13T21:55:21.416Z,8.88
2018-02-13T21:57:49.110Z,13.02
2018-02-13T22:00:16.036Z,10.85
2018-02-13T22:02:42.955Z,11.55
2018-02-13T22:05:10.653Z,11.45
2018-02-13T22:07:37.567Z,11.60
2018-02-13T22:10:05.268Z,12.52
2018-02-13T22:12:32.188Z,12.60
2018-02-13T22:14:59.885Z,12.88
2018-02-13T22:17:26.798Z,12.40
2018-02-13T22:19:53.727Z,11.68
2018-02-13T22:22:21.411Z,11.50
2018-02-13T22:24:48.336Z,12.55
2018-02-13T22:27:16.024Z,11.07
2018-02-13T22:29:42.953Z,12.00
2018-02-13T22:32:09.873Z,10.43
2018-02-13T22:34:37.373Z,11.80
2018-02-13T22:37:04.283Z,10.68
2018-02-13T22:39:31.972Z,12.02
2018-02-13T22:41:58.875Z,14.53
2018-02-13T22:44:25.796Z,13.02
2018-02-13T22:46:52.703Z,12.20
2018-02-13T22:49:19.639Z,12.30
2018-02-13T22:51:46.556Z,12.18
2018-02-13T22:54:13.491Z,10.63
2018-02-13T22:56:40.399Z,11.50
2018-02-13T22:59:07.324Z,11.50
2018-02-13T23:01:34.236Z,12.07
2018-02-13T23:04:01.158Z,11.68
2018-02-13T23:06:28.089Z,10.77
2018-02-13T23:08:55.026Z,11.70
2018-02-13T23:11:22.336Z,11.57
2018-02-13T23:13:50.036Z,12.05
2018-02-13T23:16:16.960Z,12.57
2018-02-13T23:18:43.872Z,12.73
2018-02-13T23:21:10.989Z,10.77
2018-02-13T23:23:37.924Z,11.88
2018-02-13T23:26:04.845Z,12.02
2018-02-13T23:28:31.788Z,11.20
2018-02-13T23:30:58.720Z,11.98
2018-02-13T23:33:26.395Z,12.00
2018-02-13T23:35:53.326Z,13.10
2018-02-13T23:38:20.999Z,12.70
2018-02-13T23:40:47.992Z,12.60
2018-02-13T23:43:15.885Z,12.73
2018-02-13T23:45:43.581Z,11.57
2018-02-13T23:48:10.487Z,12.55
2018-02-13T23:50:38.184Z,11.68
2018-02-13T23:53:05.100Z,13.00
2018-02-13T23:55:32.793Z,13.00
2018-02-13T23:57:59.724Z,12.40
